sensor_id;sensor_type;location;lat;lon;timestamp;P1;durP1;ratioP1;P2;durP2;ratioP2
60318;SDS011;46163;52.306;5.634;2023-01-24T00:00:05;1.38;;;1.33;;
60318;SDS011;46163;52.306;5.634;2023-01-24T00:04:58;1.50;;;1.40;;
60318;SDS011;46163;52.306;5.634;2023-01-24T00:07:23;1.50;;;1.40;;
60318;SDS011;46163;52.306;5.634;2023-01-24T00:09:49;1.30;;;1.30;;
60318;SDS011;46163;52.306;5.634;2023-01-24T00:12:15;1.70;;;1.60;;
60318;SDS011;46163;52.306;5.634;2023-01-24T00:14:40;1.70;;;1.60;;
60318;SDS011;46163;52.306;5.634;2023-01-24T00:17:06;1.50;;;1.40;;
60318;SDS011;46163;52.306;5.634;2023-01-24T00:19:33;1.90;;;1.63;;
60318;SDS011;46163;52.306;5.634;2023-01-24T00:21:58;1.50;;;1.40;;
60318;SDS011;46163;52.306;5.634;2023-01-24T00:24:24;1.30;;;1.30;;
60318;SDS011;46163;52.306;5.634;2023-01-24T00:26:51;1.30;;;1.30;;
60318;SDS011;46163;52.306;5.634;2023-01-24T00:29:17;1.42;;;1.33;;
60318;SDS011;46163;52.306;5.634;2023-01-24T00:31:42;1.50;;;1.40;;
60318;SDS011;46163;52.306;5.634;2023-01-24T00:34:08;1.50;;;1.40;;
60318;SDS011;46163;52.306;5.634;2023-01-24T00:36:33;1.45;;;1.35;;
60318;SDS011;46163;52.306;5.634;2023-01-24T00:38:59;1.50;;;1.40;;
60318;SDS011;46163;52.306;5.634;2023-01-24T00:41:25;1.58;;;1.48;;
60318;SDS011;46163;52.306;5.634;2023-01-24T00:43:51;1.40;;;1.30;;
60318;SDS011;46163;52.306;5.634;2023-01-24T00:46:16;1.50;;;1.40;;
60318;SDS011;46163;52.306;5.634;2023-01-24T00:48:42;1.50;;;1.40;;
60318;SDS011;46163;52.306;5.634;2023-01-24T00:51:07;1.40;;;1.40;;
60318;SDS011;46163;52.306;5.634;2023-01-24T00:53:33;1.55;;;1.45;;
60318;SDS011;46163;52.306;5.634;2023-01-24T00:55:59;1.45;;;1.40;;
60318;SDS011;46163;52.306;5.634;2023-01-24T00:58:24;1.52;;;1.42;;
60318;SDS011;46163;52.306;5.634;2023-01-24T01:00:53;1.45;;;1.38;;
60318;SDS011;46163;52.306;5.634;2023-01-24T01:03:19;1.30;;;1.30;;
60318;SDS011;46163;52.306;5.634;2023-01-24T01:05:45;1.35;;;1.35;;
60318;SDS011;46163;52.306;5.634;2023-01-24T01:08:11;1.65;;;1.55;;
60318;SDS011;46163;52.306;5.634;2023-01-24T01:10:38;1.30;;;1.27;;
60318;SDS011;46163;52.306;5.634;2023-01-24T01:13:04;1.50;;;1.40;;
60318;SDS011;46163;52.306;5.634;2023-01-24T01:15:30;1.38;;;1.38;;
60318;SDS011;46163;52.306;5.634;2023-01-24T01:17:56;1.30;;;1.30;;
60318;SDS011;46163;52.306;5.634;2023-01-24T01:20:23;1.83;;;1.58;;
60318;SDS011;46163;52.306;5.634;2023-01-24T01:22:49;1.40;;;1.30;;
60318;SDS011;46163;52.306;5.634;2023-01-24T01:25:16;1.42;;;1.40;;
60318;SDS011;46163;52.306;5.634;2023-01-24T01:27:41;1.58;;;1.48;;
60318;SDS011;46163;52.306;5.634;2023-01-24T01:30:07;1.30;;;1.30;;
60318;SDS011;46163;52.306;5.634;2023-01-24T01:32:33;1.60;;;1.50;;
60318;SDS011;46163;52.306;5.634;2023-01-24T01:34:58;1.50;;;1.40;;
60318;SDS011;46163;52.306;5.634;2023-01-24T01:37:24;1.75;;;1.65;;
60318;SDS011;46163;52.306;5.634;2023-01-24T01:39:50;1.48;;;1.40;;
60318;SDS011;46163;52.306;5.634;2023-01-24T01:42:15;1.50;;;1.40;;
60318;SDS011;46163;52.306;5.634;2023-01-24T01:44:41;1.58;;;1.48;;
60318;SDS011;46163;52.306;5.634;2023-01-24T01:50:11;1.30;;;1.30;;
60318;SDS011;46163;52.306;5.634;2023-01-24T01:52:43;1.48;;;1.40;;
60318;SDS011;46163;52.306;5.634;2023-01-24T01:55:11;1.50;;;1.40;;
60318;SDS011;46163;52.306;5.634;2023-01-24T01:57:39;1.35;;;1.30;;
60318;SDS011;46163;52.306;5.634;2023-01-24T02:00:11;1.60;;;1.50;;
60318;SDS011;46163;52.306;5.634;2023-01-24T02:02:43;1.55;;;1.50;;
60318;SDS011;46163;52.306;5.634;2023-01-24T02:05:14;1.50;;;1.45;;
60318;SDS011;46163;52.306;5.634;2023-01-24T02:07:43;1.60;;;1.50;;
60318;SDS011;46163;52.306;5.634;2023-01-24T02:10:14;1.60;;;1.50;;
60318;SDS011;46163;52.306;5.634;2023-01-24T02:12:43;1.30;;;1.30;;
60318;SDS011;46163;52.306;5.634;2023-01-24T02:15:17;1.40;;;1.38;;
60318;SDS011;46163;52.306;5.634;2023-01-24T02:18:05;1.33;;;1.23;;
60318;SDS011;46163;52.306;5.634;2023-01-24T02:20:39;1.50;;;1.40;;
60318;SDS011;46163;52.306;5.634;2023-01-24T02:28:07;1.55;;;1.45;;
60318;SDS011;46163;52.306;5.634;2023-01-24T02:30:35;1.42;;;1.42;;
60318;SDS011;46163;52.306;5.634;2023-01-24T02:33:09;1.55;;;1.48;;
60318;SDS011;46163;52.306;5.634;2023-01-24T02:35:37;1.50;;;1.40;;
60318;SDS011;46163;52.306;5.634;2023-01-24T02:38:04;1.50;;;1.50;;
60318;SDS011;46163;52.306;5.634;2023-01-24T02:40:36;1.45;;;1.38;;
60318;SDS011;46163;52.306;5.634;2023-01-24T02:43:02;1.35;;;1.35;;
60318;SDS011;46163;52.306;5.634;2023-01-24T02:45:32;1.33;;;1.33;;
60318;SDS011;46163;52.306;5.634;2023-01-24T02:47:59;1.30;;;1.30;;
60318;SDS011;46163;52.306;5.634;2023-01-24T02:50:26;1.40;;;1.40;;
60318;SDS011;46163;52.306;5.634;2023-01-24T02:52:53;1.55;;;1.45;;
60318;SDS011;46163;52.306;5.634;2023-01-24T02:55:38;1.50;;;1.40;;
60318;SDS011;46163;52.306;5.634;2023-01-24T02:58:24;1.70;;;1.60;;
60318;SDS011;46163;52.306;5.634;2023-01-24T03:00:51;1.40;;;1.40;;
60318;SDS011;46163;52.306;5.634;2023-01-24T03:03:17;1.52;;;1.50;;
60318;SDS011;46163;52.306;5.634;2023-01-24T03:05:43;1.73;;;1.63;;
60318;SDS011;46163;52.306;5.634;2023-01-24T03:10:46;1.50;;;1.40;;
60318;SDS011;46163;52.306;5.634;2023-01-24T03:13:12;1.55;;;1.45;;
60318;SDS011;46163;52.306;5.634;2023-01-24T03:15:58;1.42;;;1.40;;
60318;SDS011;46163;52.306;5.634;2023-01-24T03:18:43;1.50;;;1.40;;
60318;SDS011;46163;52.306;5.634;2023-01-24T03:21:27;1.70;;;1.60;;
60318;SDS011;46163;52.306;5.634;2023-01-24T03:24:11;1.60;;;1.50;;
60318;SDS011;46163;52.306;5.634;2023-01-24T03:26:56;1.30;;;1.30;;
60318;SDS011;46163;52.306;5.634;2023-01-24T03:29:39;1.70;;;1.60;;
60318;SDS011;46163;52.306;5.634;2023-01-24T03:32:23;1.30;;;1.30;;
60318;SDS011;46163;52.306;5.634;2023-01-24T03:35:07;1.40;;;1.40;;
60318;SDS011;46163;52.306;5.634;2023-01-24T03:37:33;1.60;;;1.50;;
60318;SDS011;46163;52.306;5.634;2023-01-24T03:40:17;1.60;;;1.50;;
60318;SDS011;46163;52.306;5.634;2023-01-24T03:42:42;1.70;;;1.60;;
60318;SDS011;46163;52.306;5.634;2023-01-24T03:47:42;1.30;;;1.30;;
60318;SDS011;46163;52.306;5.634;2023-01-24T03:50:25;1.50;;;1.40;;
60318;SDS011;46163;52.306;5.634;2023-01-24T03:53:11;1.67;;;1.58;;
60318;SDS011;46163;52.306;5.634;2023-01-24T03:55:37;1.40;;;1.40;;
60318;SDS011;46163;52.306;5.634;2023-01-24T03:58:03;1.50;;;1.40;;
60318;SDS011;46163;52.306;5.634;2023-01-24T04:00:29;1.30;;;1.30;;
60318;SDS011;46163;52.306;5.634;2023-01-24T04:02:56;1.58;;;1.50;;
60318;SDS011;46163;52.306;5.634;2023-01-24T04:05:22;1.60;;;1.50;;
60318;SDS011;46163;52.306;5.634;2023-01-24T04:07:48;1.50;;;1.40;;
60318;SDS011;46163;52.306;5.634;2023-01-24T04:10:14;1.70;;;1.60;;
60318;SDS011;46163;52.306;5.634;2023-01-24T04:12:43;1.48;;;1.38;;
60318;SDS011;46163;52.306;5.634;2023-01-24T04:15:14;1.40;;;1.40;;
60318;SDS011;46163;52.306;5.634;2023-01-24T04:17:44;1.30;;;1.30;;
60318;SDS011;46163;52.306;5.634;2023-01-24T04:20:10;1.20;;;1.20;;
60318;SDS011;46163;52.306;5.634;2023-01-24T04:22:37;1.25;;;1.25;;
60318;SDS011;46163;52.306;5.634;2023-01-24T04:25:02;1.52;;;1.42;;
60318;SDS011;46163;52.306;5.634;2023-01-24T04:29:55;1.15;;;1.15;;
60318;SDS011;46163;52.306;5.634;2023-01-24T04:32:21;1.15;;;1.15;;
60318;SDS011;46163;52.306;5.634;2023-01-24T04:34:46;1.10;;;1.10;;
60318;SDS011;46163;52.306;5.634;2023-01-24T04:37:12;1.20;;;1.20;;
60318;SDS011;46163;52.306;5.634;2023-01-24T04:39:38;1.40;;;1.40;;
60318;SDS011;46163;52.306;5.634;2023-01-24T04:42:04;1.20;;;1.20;;
60318;SDS011;46163;52.306;5.634;2023-01-24T04:44:31;1.20;;;1.10;;
60318;SDS011;46163;52.306;5.634;2023-01-24T04:46:57;1.00;;;1.00;;
60318;SDS011;46163;52.306;5.634;2023-01-24T04:49:22;1.10;;;1.10;;
60318;SDS011;46163;52.306;5.634;2023-01-24T04:51:49;1.10;;;1.10;;
60318;SDS011;46163;52.306;5.634;2023-01-24T04:54:15;1.40;;;1.30;;
60318;SDS011;46163;52.306;5.634;2023-01-24T04:56:41;1.00;;;1.00;;
60318;SDS011;46163;52.306;5.634;2023-01-24T04:59:07;1.20;;;1.20;;
60318;SDS011;46163;52.306;5.634;2023-01-24T05:01:33;1.20;;;1.20;;
60318;SDS011;46163;52.306;5.634;2023-01-24T05:03:58;1.00;;;1.00;;
60318;SDS011;46163;52.306;5.634;2023-01-24T05:06:25;1.30;;;1.30;;
60318;SDS011;46163;52.306;5.634;2023-01-24T05:08:51;1.20;;;1.20;;
60318;SDS011;46163;52.306;5.634;2023-01-24T05:11:20;0.88;;;0.88;;
60318;SDS011;46163;52.306;5.634;2023-01-24T05:13:47;1.27;;;1.27;;
60318;SDS011;46163;52.306;5.634;2023-01-24T05:16:13;1.10;;;1.10;;
60318;SDS011;46163;52.306;5.634;2023-01-24T05:18:39;1.20;;;1.20;;
60318;SDS011;46163;52.306;5.634;2023-01-24T05:21:05;1.15;;;1.15;;
60318;SDS011;46163;52.306;5.634;2023-01-24T05:23:32;1.40;;;1.40;;
60318;SDS011;46163;52.306;5.634;2023-01-24T05:26:01;0.98;;;0.98;;
60318;SDS011;46163;52.306;5.634;2023-01-24T05:28:27;1.30;;;1.30;;
60318;SDS011;46163;52.306;5.634;2023-01-24T05:30:57;1.00;;;1.00;;
60318;SDS011;46163;52.306;5.634;2023-01-24T05:33:27;1.10;;;1.10;;
60318;SDS011;46163;52.306;5.634;2023-01-24T05:35:59;1.10;;;1.10;;
60318;SDS011;46163;52.306;5.634;2023-01-24T05:38:28;0.90;;;0.90;;
60318;SDS011;46163;52.306;5.634;2023-01-24T05:40:58;1.08;;;1.08;;
60318;SDS011;46163;52.306;5.634;2023-01-24T05:43:24;1.10;;;1.10;;
60318;SDS011;46163;52.306;5.634;2023-01-24T05:45:50;1.30;;;1.30;;
60318;SDS011;46163;52.306;5.634;2023-01-24T05:48:16;1.10;;;1.10;;
60318;SDS011;46163;52.306;5.634;2023-01-24T05:50:42;1.00;;;1.00;;
60318;SDS011;46163;52.306;5.634;2023-01-24T05:53:08;1.20;;;1.20;;
60318;SDS011;46163;52.306;5.634;2023-01-24T05:55:33;1.70;;;1.13;;
60318;SDS011;46163;52.306;5.634;2023-01-24T05:57:59;1.10;;;1.10;;
60318;SDS011;46163;52.306;5.634;2023-01-24T06:00:25;1.10;;;1.10;;
60318;SDS011;46163;52.306;5.634;2023-01-24T06:02:53;1.08;;;1.08;;
60318;SDS011;46163;52.306;5.634;2023-01-24T06:05:19;1.10;;;1.10;;
60318;SDS011;46163;52.306;5.634;2023-01-24T06:07:45;1.17;;;1.17;;
60318;SDS011;46163;52.306;5.634;2023-01-24T06:10:10;1.20;;;1.20;;
60318;SDS011;46163;52.306;5.634;2023-01-24T06:12:36;1.00;;;1.00;;
60318;SDS011;46163;52.306;5.634;2023-01-24T06:15:02;1.08;;;1.08;;
60318;SDS011;46163;52.306;5.634;2023-01-24T06:17:27;1.10;;;1.10;;
60318;SDS011;46163;52.306;5.634;2023-01-24T06:19:55;1.42;;;1.33;;
60318;SDS011;46163;52.306;5.634;2023-01-24T06:22:25;1.10;;;1.10;;
60318;SDS011;46163;52.306;5.634;2023-01-24T06:25:00;1.20;;;1.20;;
60318;SDS011;46163;52.306;5.634;2023-01-24T06:27:26;1.08;;;1.08;;
60318;SDS011;46163;52.306;5.634;2023-01-24T06:29:51;1.20;;;1.13;;
60318;SDS011;46163;52.306;5.634;2023-01-24T06:35:08;1.17;;;1.17;;
60318;SDS011;46163;52.306;5.634;2023-01-24T06:37:51;1.20;;;1.20;;
60318;SDS011;46163;52.306;5.634;2023-01-24T06:40:20;1.13;;;1.13;;
60318;SDS011;46163;52.306;5.634;2023-01-24T06:42:51;1.02;;;1.02;;
60318;SDS011;46163;52.306;5.634;2023-01-24T06:45:17;1.17;;;1.10;;
60318;SDS011;46163;52.306;5.634;2023-01-24T06:47:43;1.15;;;1.15;;
60318;SDS011;46163;52.306;5.634;2023-01-24T06:50:13;1.30;;;1.20;;
60318;SDS011;46163;52.306;5.634;2023-01-24T06:52:44;1.05;;;1.05;;
60318;SDS011;46163;52.306;5.634;2023-01-24T06:55:11;1.05;;;1.05;;
60318;SDS011;46163;52.306;5.634;2023-01-24T06:57:37;1.20;;;1.20;;
60318;SDS011;46163;52.306;5.634;2023-01-24T07:00:03;1.20;;;1.20;;
60318;SDS011;46163;52.306;5.634;2023-01-24T07:02:29;1.45;;;1.10;;
60318;SDS011;46163;52.306;5.634;2023-01-24T07:04:54;1.40;;;1.40;;
60318;SDS011;46163;52.306;5.634;2023-01-24T07:07:20;1.13;;;1.13;;
60318;SDS011;46163;52.306;5.634;2023-01-24T07:09:45;1.50;;;1.40;;
60318;SDS011;46163;52.306;5.634;2023-01-24T07:12:10;1.30;;;1.30;;
60318;SDS011;46163;52.306;5.634;2023-01-24T07:14:36;1.42;;;1.33;;
60318;SDS011;46163;52.306;5.634;2023-01-24T07:17:02;1.13;;;1.13;;
60318;SDS011;46163;52.306;5.634;2023-01-24T07:19:28;1.20;;;1.20;;
60318;SDS011;46163;52.306;5.634;2023-01-24T07:21:58;1.38;;;1.30;;
60318;SDS011;46163;52.306;5.634;2023-01-24T07:24:25;1.60;;;1.50;;
60318;SDS011;46163;52.306;5.634;2023-01-24T07:26:52;1.35;;;1.27;;
60318;SDS011;46163;52.306;5.634;2023-01-24T07:29:18;1.45;;;1.40;;
60318;SDS011;46163;52.306;5.634;2023-01-24T07:31:45;1.50;;;1.40;;
60318;SDS011;46163;52.306;5.634;2023-01-24T07:34:13;1.60;;;1.50;;
60318;SDS011;46163;52.306;5.634;2023-01-24T07:36:40;1.95;;;1.48;;
60318;SDS011;46163;52.306;5.634;2023-01-24T07:39:07;1.30;;;1.30;;
60318;SDS011;46163;52.306;5.634;2023-01-24T07:41:32;2.17;;;1.50;;
60318;SDS011;46163;52.306;5.634;2023-01-24T07:43:58;1.50;;;1.40;;
60318;SDS011;46163;52.306;5.634;2023-01-24T07:46:23;1.52;;;1.50;;
60318;SDS011;46163;52.306;5.634;2023-01-24T07:48:49;1.60;;;1.50;;
60318;SDS011;46163;52.306;5.634;2023-01-24T07:51:14;1.70;;;1.60;;
60318;SDS011;46163;52.306;5.634;2023-01-24T07:53:40;1.67;;;1.58;;
60318;SDS011;46163;52.306;5.634;2023-01-24T07:56:05;1.70;;;1.60;;
60318;SDS011;46163;52.306;5.634;2023-01-24T07:58:31;2.92;;;1.40;;
60318;SDS011;46163;52.306;5.634;2023-01-24T08:00:57;1.60;;;1.50;;
60318;SDS011;46163;52.306;5.634;2023-01-24T08:03:24;1.60;;;1.50;;
60318;SDS011;46163;52.306;5.634;2023-01-24T08:05:49;1.70;;;1.60;;
60318;SDS011;46163;52.306;5.634;2023-01-24T08:08:15;1.52;;;1.42;;
60318;SDS011;46163;52.306;5.634;2023-01-24T08:10:41;1.63;;;1.52;;
60318;SDS011;46163;52.306;5.634;2023-01-24T08:13:06;1.48;;;1.45;;
60318;SDS011;46163;52.306;5.634;2023-01-24T08:15:31;1.63;;;1.52;;
60318;SDS011;46163;52.306;5.634;2023-01-24T08:17:58;1.70;;;1.60;;
60318;SDS011;46163;52.306;5.634;2023-01-24T08:20:26;1.85;;;1.58;;
60318;SDS011;46163;52.306;5.634;2023-01-24T08:22:54;1.70;;;1.60;;
60318;SDS011;46163;52.306;5.634;2023-01-24T08:25:20;1.60;;;1.50;;
60318;SDS011;46163;52.306;5.634;2023-01-24T08:27:47;1.70;;;1.60;;
60318;SDS011;46163;52.306;5.634;2023-01-24T08:30:13;1.80;;;1.70;;
60318;SDS011;46163;52.306;5.634;2023-01-24T08:32:38;1.50;;;1.40;;
60318;SDS011;46163;52.306;5.634;2023-01-24T08:35:04;1.50;;;1.40;;
60318;SDS011;46163;52.306;5.634;2023-01-24T08:37:30;1.60;;;1.50;;
60318;SDS011;46163;52.306;5.634;2023-01-24T08:39:55;1.70;;;1.60;;
60318;SDS011;46163;52.306;5.634;2023-01-24T08:42:41;1.40;;;1.40;;
60318;SDS011;46163;52.306;5.634;2023-01-24T08:47:35;1.40;;;1.40;;
60318;SDS011;46163;52.306;5.634;2023-01-24T08:50:00;1.40;;;1.40;;
60318;SDS011;46163;52.306;5.634;2023-01-24T08:52:28;1.70;;;1.60;;
60318;SDS011;46163;52.306;5.634;2023-01-24T08:54:53;1.50;;;1.50;;
60318;SDS011;46163;52.306;5.634;2023-01-24T08:57:19;1.58;;;1.48;;
60318;SDS011;46163;52.306;5.634;2023-01-24T08:59:45;1.60;;;1.50;;
60318;SDS011;46163;52.306;5.634;2023-01-24T09:02:14;1.70;;;1.60;;
60318;SDS011;46163;52.306;5.634;2023-01-24T09:04:41;2.03;;;1.83;;
60318;SDS011;46163;52.306;5.634;2023-01-24T09:07:07;1.38;;;1.38;;
60318;SDS011;46163;52.306;5.634;2023-01-24T09:09:33;1.58;;;1.48;;
60318;SDS011;46163;52.306;5.634;2023-01-24T09:11:59;1.90;;;1.50;;
60318;SDS011;46163;52.306;5.634;2023-01-24T09:14:24;1.30;;;1.30;;
60318;SDS011;46163;52.306;5.634;2023-01-24T09:16:51;1.63;;;1.52;;
60318;SDS011;46163;52.306;5.634;2023-01-24T09:19:16;1.40;;;1.30;;
60318;SDS011;46163;52.306;5.634;2023-01-24T09:21:42;1.58;;;1.48;;
60318;SDS011;46163;52.306;5.634;2023-01-24T09:24:09;1.40;;;1.40;;
60318;SDS011;46163;52.306;5.634;2023-01-24T09:26:35;2.00;;;1.80;;
60318;SDS011;46163;52.306;5.634;2023-01-24T09:29:01;1.63;;;1.52;;
60318;SDS011;46163;52.306;5.634;2023-01-24T09:31:27;1.70;;;1.60;;
60318;SDS011;46163;52.306;5.634;2023-01-24T09:33:52;1.55;;;1.45;;
60318;SDS011;46163;52.306;5.634;2023-01-24T09:36:18;2.17;;;1.70;;
60318;SDS011;46163;52.306;5.634;2023-01-24T09:38:44;1.70;;;1.60;;
60318;SDS011;46163;52.306;5.634;2023-01-24T09:43:51;1.83;;;1.73;;
60318;SDS011;46163;52.306;5.634;2023-01-24T09:51:33;1.50;;;1.40;;
60318;SDS011;46163;52.306;5.634;2023-01-24T09:54:05;1.58;;;1.48;;
60318;SDS011;46163;52.306;5.634;2023-01-24T09:56:35;1.65;;;1.50;;
60318;SDS011;46163;52.306;5.634;2023-01-24T10:00:04;1.70;;;1.60;;
60318;SDS011;46163;52.306;5.634;2023-01-24T10:02:13;1.65;;;1.55;;
60318;SDS011;46163;52.306;5.634;2023-01-24T10:04:42;2.97;;;1.50;;
60318;SDS011;46163;52.306;5.634;2023-01-24T10:23:50;1.20;;;1.20;;
60318;SDS011;46163;52.306;5.634;2023-01-24T10:26:35;1.58;;;1.48;;
60318;SDS011;46163;52.306;5.634;2023-01-24T10:29:17;1.30;;;1.30;;
60318;SDS011;46163;52.306;5.634;2023-01-24T10:32:10;1.33;;;1.33;;
60318;SDS011;46163;52.306;5.634;2023-01-24T10:34:43;1.98;;;1.35;;
60318;SDS011;46163;52.306;5.634;2023-01-24T10:37:17;1.30;;;1.30;;
60318;SDS011;46163;52.306;5.634;2023-01-24T10:39:47;1.25;;;1.25;;
60318;SDS011;46163;52.306;5.634;2023-01-24T10:44:50;1.40;;;1.40;;
60318;SDS011;46163;52.306;5.634;2023-01-24T10:50:11;1.48;;;1.38;;
60318;SDS011;46163;52.306;5.634;2023-01-24T10:52:42;1.20;;;1.20;;
60318;SDS011;46163;52.306;5.634;2023-01-24T10:55:26;1.30;;;1.30;;
60318;SDS011;46163;52.306;5.634;2023-01-24T10:58:00;1.45;;;1.40;;
60318;SDS011;46163;52.306;5.634;2023-01-24T11:00:34;1.05;;;1.05;;
60318;SDS011;46163;52.306;5.634;2023-01-24T11:03:16;2.27;;;1.47;;
60318;SDS011;46163;52.306;5.634;2023-01-24T11:05:48;1.25;;;1.25;;
60318;SDS011;46163;52.306;5.634;2023-01-24T11:08:17;1.45;;;1.33;;
60318;SDS011;46163;52.306;5.634;2023-01-24T11:10:45;1.40;;;1.30;;
60318;SDS011;46163;52.306;5.634;2023-01-24T11:13:24;1.30;;;1.30;;
60318;SDS011;46163;52.306;5.634;2023-01-24T11:24:42;1.20;;;1.20;;
60318;SDS011;46163;52.306;5.634;2023-01-24T11:27:13;1.63;;;1.40;;
60318;SDS011;46163;52.306;5.634;2023-01-24T11:29:40;1.23;;;1.20;;
60318;SDS011;46163;52.306;5.634;2023-01-24T11:35:16;1.05;;;1.05;;
60318;SDS011;46163;52.306;5.634;2023-01-24T11:40:37;1.30;;;1.30;;
60318;SDS011;46163;52.306;5.634;2023-01-24T11:43:17;1.65;;;1.38;;
60318;SDS011;46163;52.306;5.634;2023-01-24T11:48:47;1.20;;;1.20;;
60318;SDS011;46163;52.306;5.634;2023-01-24T11:54:13;1.20;;;1.20;;
60318;SDS011;46163;52.306;5.634;2023-01-24T12:22:19;1.20;;;1.20;;
60318;SDS011;46163;52.306;5.634;2023-01-24T12:24:54;1.33;;;1.25;;
60318;SDS011;46163;52.306;5.634;2023-01-24T12:27:48;1.10;;;1.10;;
60318;SDS011;46163;52.306;5.634;2023-01-24T12:30:35;1.30;;;1.30;;
60318;SDS011;46163;52.306;5.634;2023-01-24T12:35:57;1.60;;;1.50;;
60318;SDS011;46163;52.306;5.634;2023-01-24T12:38:29;1.50;;;1.40;;
60318;SDS011;46163;52.306;5.634;2023-01-24T12:41:09;1.25;;;1.15;;
60318;SDS011;46163;52.306;5.634;2023-01-24T12:43:50;1.20;;;1.20;;
60318;SDS011;46163;52.306;5.634;2023-01-24T12:49:29;1.25;;;1.15;;
60318;SDS011;46163;52.306;5.634;2023-01-24T12:52:30;1.10;;;1.10;;
60318;SDS011;46163;52.306;5.634;2023-01-24T12:55:20;1.25;;;1.20;;
60318;SDS011;46163;52.306;5.634;2023-01-24T12:58:03;4.05;;;1.20;;
60318;SDS011;46163;52.306;5.634;2023-01-24T13:01:06;0.95;;;0.95;;
60318;SDS011;46163;52.306;5.634;2023-01-24T13:13:49;1.30;;;1.20;;
60318;SDS011;46163;52.306;5.634;2023-01-24T13:21:59;1.58;;;1.30;;
60318;SDS011;46163;52.306;5.634;2023-01-24T13:27:19;1.50;;;1.40;;
60318;SDS011;46163;52.306;5.634;2023-01-24T13:32:45;1.55;;;1.27;;
60318;SDS011;46163;52.306;5.634;2023-01-24T13:35:23;1.52;;;1.38;;
60318;SDS011;46163;52.306;5.634;2023-01-24T13:37:51;2.22;;;1.40;;
60318;SDS011;46163;52.306;5.634;2023-01-24T13:40:24;2.42;;;1.50;;
60318;SDS011;46163;52.306;5.634;2023-01-24T13:42:54;1.77;;;1.40;;
60318;SDS011;46163;52.306;5.634;2023-01-24T13:47:54;3.83;;;1.45;;
60318;SDS011;46163;52.306;5.634;2023-01-24T13:50:22;1.65;;;1.50;;
60318;SDS011;46163;52.306;5.634;2023-01-24T13:52:58;2.33;;;1.50;;
60318;SDS011;46163;52.306;5.634;2023-01-24T14:00:33;1.63;;;1.35;;
60318;SDS011;46163;52.306;5.634;2023-01-24T14:19:20;1.40;;;1.30;;
60318;SDS011;46163;52.306;5.634;2023-01-24T14:21:52;1.58;;;1.38;;
60318;SDS011;46163;52.306;5.634;2023-01-24T14:33:20;1.92;;;1.40;;
60318;SDS011;46163;52.306;5.634;2023-01-24T14:38:34;1.80;;;1.17;;
60318;SDS011;46163;52.306;5.634;2023-01-24T14:41:00;1.25;;;1.25;;
60318;SDS011;46163;52.306;5.634;2023-01-24T14:43:32;1.42;;;1.33;;
60318;SDS011;46163;52.306;5.634;2023-01-24T14:46:11;1.40;;;1.30;;
60318;SDS011;46163;52.306;5.634;2023-01-24T14:48:47;1.33;;;1.23;;
60318;SDS011;46163;52.306;5.634;2023-01-24T14:51:15;1.40;;;1.30;;
60318;SDS011;46163;52.306;5.634;2023-01-24T14:53:50;1.27;;;1.20;;
60318;SDS011;46163;52.306;5.634;2023-01-24T14:56:17;2.10;;;1.30;;
60318;SDS011;46163;52.306;5.634;2023-01-24T14:58:44;1.23;;;1.20;;
60318;SDS011;46163;52.306;5.634;2023-01-24T15:01:29;1.50;;;1.40;;
60318;SDS011;46163;52.306;5.634;2023-01-24T15:03:57;1.52;;;1.42;;
60318;SDS011;46163;52.306;5.634;2023-01-24T15:06:24;1.10;;;1.10;;
60318;SDS011;46163;52.306;5.634;2023-01-24T15:08:58;1.58;;;1.48;;
60318;SDS011;46163;52.306;5.634;2023-01-24T15:14:32;1.40;;;1.30;;
60318;SDS011;46163;52.306;5.634;2023-01-24T15:16:49;1.20;;;1.20;;
60318;SDS011;46163;52.306;5.634;2023-01-24T15:19:22;1.50;;;1.40;;
60318;SDS011;46163;52.306;5.634;2023-01-24T15:21:50;1.50;;;1.40;;
60318;SDS011;46163;52.306;5.634;2023-01-24T15:24:27;1.60;;;1.50;;
60318;SDS011;46163;52.306;5.634;2023-01-24T15:26:56;1.67;;;1.58;;
60318;SDS011;46163;52.306;5.634;2023-01-24T15:29:43;1.67;;;1.58;;
60318;SDS011;46163;52.306;5.634;2023-01-24T15:38:15;2.30;;;1.60;;
60318;SDS011;46163;52.306;5.634;2023-01-24T15:44:10;1.92;;;1.70;;
60318;SDS011;46163;52.306;5.634;2023-01-24T15:46:41;1.77;;;1.67;;
60318;SDS011;46163;52.306;5.634;2023-01-24T15:52:21;2.05;;;1.90;;
60318;SDS011;46163;52.306;5.634;2023-01-24T15:54:48;1.80;;;1.70;;
60318;SDS011;46163;52.306;5.634;2023-01-24T15:57:32;2.05;;;1.95;;
60318;SDS011;46163;52.306;5.634;2023-01-24T16:02:27;1.90;;;1.80;;
60318;SDS011;46163;52.306;5.634;2023-01-24T16:04:53;1.90;;;1.80;;
60318;SDS011;46163;52.306;5.634;2023-01-24T16:07:19;1.85;;;1.75;;
60318;SDS011;46163;52.306;5.634;2023-01-24T16:09:45;2.10;;;1.90;;
60318;SDS011;46163;52.306;5.634;2023-01-24T16:12:14;1.88;;;1.77;;
60318;SDS011;46163;52.306;5.634;2023-01-24T16:14:44;2.13;;;1.90;;
60318;SDS011;46163;52.306;5.634;2023-01-24T16:17:19;2.08;;;1.98;;
60318;SDS011;46163;52.306;5.634;2023-01-24T16:19:47;2.47;;;1.80;;
60318;SDS011;46163;52.306;5.634;2023-01-24T16:22:12;1.88;;;1.77;;
60318;SDS011;46163;52.306;5.634;2023-01-24T16:24:38;2.10;;;1.90;;
60318;SDS011;46163;52.306;5.634;2023-01-24T16:27:04;2.20;;;2.00;;
60318;SDS011;46163;52.306;5.634;2023-01-24T16:29:30;2.25;;;1.85;;
60318;SDS011;46163;52.306;5.634;2023-01-24T16:31:59;2.00;;;1.90;;
60318;SDS011;46163;52.306;5.634;2023-01-24T16:34:27;2.00;;;1.90;;
60318;SDS011;46163;52.306;5.634;2023-01-24T16:36:53;1.95;;;1.85;;
60318;SDS011;46163;52.306;5.634;2023-01-24T16:39:19;2.00;;;1.90;;
60318;SDS011;46163;52.306;5.634;2023-01-24T16:41:47;2.08;;;1.90;;
60318;SDS011;46163;52.306;5.634;2023-01-24T16:44:14;2.15;;;2.00;;
60318;SDS011;46163;52.306;5.634;2023-01-24T16:46:46;3.03;;;2.00;;
60318;SDS011;46163;52.306;5.634;2023-01-24T16:49:13;2.00;;;1.90;;
60318;SDS011;46163;52.306;5.634;2023-01-24T16:51:44;2.20;;;2.00;;
60318;SDS011;46163;52.306;5.634;2023-01-24T16:54:14;2.00;;;1.88;;
60318;SDS011;46163;52.306;5.634;2023-01-24T16:56:40;1.88;;;1.77;;
60318;SDS011;46163;52.306;5.634;2023-01-24T16:59:07;2.88;;;2.13;;
60318;SDS011;46163;52.306;5.634;2023-01-24T17:01:33;2.30;;;2.10;;
60318;SDS011;46163;52.306;5.634;2023-01-24T17:03:59;2.40;;;2.20;;
60318;SDS011;46163;52.306;5.634;2023-01-24T17:06:24;2.30;;;2.10;;
60318;SDS011;46163;52.306;5.634;2023-01-24T17:08:51;2.15;;;1.95;;
60318;SDS011;46163;52.306;5.634;2023-01-24T17:11:17;1.92;;;1.83;;
60318;SDS011;46163;52.306;5.634;2023-01-24T17:13:45;2.17;;;1.97;;
60318;SDS011;46163;52.306;5.634;2023-01-24T17:16:12;2.72;;;2.10;;
60318;SDS011;46163;52.306;5.634;2023-01-24T17:18:38;2.20;;;2.00;;
60318;SDS011;46163;52.306;5.634;2023-01-24T17:21:09;2.13;;;1.85;;
60318;SDS011;46163;52.306;5.634;2023-01-24T17:23:38;1.90;;;1.73;;
60318;SDS011;46163;52.306;5.634;2023-01-24T17:26:11;1.70;;;1.60;;
60318;SDS011;46163;52.306;5.634;2023-01-24T17:28:42;3.08;;;1.65;;
60318;SDS011;46163;52.306;5.634;2023-01-24T17:33:38;1.80;;;1.70;;
60318;SDS011;46163;52.306;5.634;2023-01-24T17:36:04;1.77;;;1.67;;
60318;SDS011;46163;52.306;5.634;2023-01-24T17:38:30;1.77;;;1.67;;
60318;SDS011;46163;52.306;5.634;2023-01-24T17:40:56;3.22;;;1.70;;
60318;SDS011;46163;52.306;5.634;2023-01-24T17:43:23;2.60;;;2.00;;
60318;SDS011;46163;52.306;5.634;2023-01-24T17:45:49;1.70;;;1.60;;
60318;SDS011;46163;52.306;5.634;2023-01-24T17:48:18;2.03;;;1.70;;
60318;SDS011;46163;52.306;5.634;2023-01-24T17:50:44;1.70;;;1.60;;
60318;SDS011;46163;52.306;5.634;2023-01-24T17:53:12;5.15;;;1.70;;
60318;SDS011;46163;52.306;5.634;2023-01-24T17:55:37;2.25;;;1.60;;
60318;SDS011;46163;52.306;5.634;2023-01-24T17:58:03;1.80;;;1.70;;
60318;SDS011;46163;52.306;5.634;2023-01-24T18:00:29;1.67;;;1.58;;
60318;SDS011;46163;52.306;5.634;2023-01-24T18:02:58;1.80;;;1.70;;